Time;durP1;ratioP1;P1;durP2;ratioP2;P2;SDS_P1;SDS_P2;PMS_P1;PMS_P2;Temp;Humidity;BMP_temperature;BMP_pressure;BME280_temperature;BME280_humidity;BME280_pressure;Samples;Min_cycle;Max_cycle;Signal;HPM_P1;HPM_P2
2022/07/22 00:01:02;;;;;;;23.03;8.27;;;18.20;1.00;;;;;;5042202;28;20391;-80
2022/07/22 00:03:56;;;;;;;16.67;8.00;;;18.10;1.00;;;;;;5042469;28;20456;-80
2022/07/22 00:06:44;;;;;;;9.83;7.87;;;18.00;1.00;;;;;;5047898;28;20383;-80
2022/07/22 00:09:14;;;;;;;14.60;8.40;;;18.00;1.00;;;;;;5035919;28;20406;-80
2022/07/22 00:11:50;;;;;;;16.13;9.20;;;17.90;1.00;;;;;;5047337;28;20400;-80
2022/07/22 00:14:26;;;;;;;12.33;9.30;;;17.90;1.00;;;;;;5051049;28;20813;-80
2022/07/22 00:16:56;;;;;;;15.67;8.87;;;17.90;1.00;;;;;;5034722;28;20497;-76
2022/07/22 00:19:24;;;;;;;12.07;8.20;;;17.90;1.00;;;;;;5047908;28;20429;-76
2022/07/22 00:21:53;;;;;;;15.07;8.80;;;17.80;1.00;;;;;;5041370;28;20417;-77
2022/07/22 00:24:20;;;;;;;11.17;8.70;;;17.80;1.00;;;;;;5047251;28;20515;-76
2022/07/22 00:26:56;;;;;;;12.83;9.00;;;17.70;1.00;;;;;;5046947;28;20927;-76
2022/07/22 00:29:26;;;;;;;11.00;8.57;;;17.70;1.00;;;;;;5042032;28;20730;-76
2022/07/22 00:31:52;;;;;;;14.77;9.57;;;17.50;1.00;;;;;;5052682;28;20853;-80
2022/07/22 00:34:17;;;;;;;11.27;8.93;;;17.50;1.00;;;;;;5045265;28;20459;-80
2022/07/22 00:36:50;;;;;;;10.27;8.50;;;17.50;1.00;;;;;;5044406;28;20194;-80
2022/07/22 00:39:26;;;;;;;12.10;8.60;;;17.50;1.00;;;;;;5033900;28;20704;-79
2022/07/22 00:42:20;;;;;;;11.13;9.00;;;17.50;1.00;;;;;;5051278;28;20418;-80
2022/07/22 00:44:50;;;;;;;13.27;8.10;;;17.40;1.00;;;;;;5041236;28;20878;-80
2022/07/22 00:47:20;;;;;;;14.37;8.97;;;17.40;1.00;;;;;;5045472;28;20491;-77
2022/07/22 00:49:50;;;;;;;14.33;9.30;;;17.30;1.00;;;;;;5047538;28;20880;-77
2022/07/22 00:52:22;;;;;;;13.17;8.97;;;17.40;1.00;;;;;;5042154;28;20908;-76
2022/07/22 00:54:48;;;;;;;12.33;9.10;;;17.30;1.00;;;;;;5040777;28;20408;-77
2022/07/22 00:57:20;;;;;;;13.37;9.20;;;17.30;1.00;;;;;;5043192;28;20903;-77
2022/07/22 00:59:50;;;;;;;15.43;9.30;;;17.20;1.00;;;;;;5062817;28;20500;-77
2022/07/22 01:02:16;;;;;;;15.27;9.63;;;17.20;1.00;;;;;;5045751;28;20428;-80
2022/07/22 01:05:26;;;;;;;13.17;9.40;;;17.10;1.00;;;;;;5053384;28;20462;-80
2022/07/22 01:07:51;;;;;;;16.17;9.57;;;17.10;1.00;;;;;;5039332;28;20172;-80
2022/07/22 01:10:38;;;;;;;11.77;9.40;;;17.00;1.00;;;;;;5049376;28;20548;-80
2022/07/22 01:13:14;;;;;;;15.70;10.27;;;16.90;1.00;;;;;;5040110;28;20199;-81
2022/07/22 01:15:56;;;;;;;13.83;8.90;;;16.90;1.00;;;;;;5039165;28;20850;-78
2022/07/22 01:18:44;;;;;;;15.20;9.23;;;17.00;1.00;;;;;;5053063;28;20415;-80
2022/07/22 01:21:15;;;;;;;13.17;9.33;;;16.90;1.00;;;;;;5039157;28;20429;-80
2022/07/22 01:23:50;;;;;;;13.27;9.43;;;16.80;1.00;;;;;;5039939;28;20459;-80
2022/07/22 01:26:17;;;;;;;13.73;9.90;;;16.70;1.00;;;;;;5044475;28;20412;-80
2022/07/22 01:28:51;;;;;;;17.30;9.60;;;16.70;1.00;;;;;;5046473;28;20909;-80
2022/07/22 01:31:27;;;;;;;15.20;10.40;;;16.70;1.00;;;;;;5042839;28;20751;-77
2022/07/22 01:34:04;;;;;;;19.73;10.40;;;16.70;1.00;;;;;;5038901;28;20407;-77
2022/07/22 01:36:30;;;;;;;15.27;10.07;;;16.60;1.00;;;;;;5043665;28;20444;-77
2022/07/22 01:38:56;;;;;;;16.13;9.77;;;16.70;1.00;;;;;;5047665;28;20940;-77
2022/07/22 01:41:32;;;;;;;17.33;9.60;;;16.60;1.00;;;;;;5047381;28;20185;-76
2022/07/22 01:43:58;;;;;;;13.97;9.07;;;16.60;1.00;;;;;;5047943;28;20516;-77
2022/07/22 01:46:58;;;;;;;23.73;9.47;;;16.50;1.00;;;;;;5048026;28;20418;-77
2022/07/22 01:49:26;;;;;;;28.80;10.10;;;16.50;1.00;;;;;;5045818;28;20181;-77
2022/07/22 01:51:56;;;;;;;12.40;8.97;;;16.50;1.00;;;;;;5039987;28;20393;-77
2022/07/22 01:54:22;;;;;;;21.63;10.57;;;16.50;1.00;;;;;;5053602;28;20414;-77
2022/07/22 01:56:50;;;;;;;16.67;9.83;;;16.50;1.00;;;;;;5048678;28;20394;-77
2022/07/22 01:59:38;;;;;;;16.80;10.10;;;16.40;1.00;;;;;;5039861;28;20902;-77
2022/07/22 02:05:25;;;;;;;19.00;10.40;;;16.30;1.00;;;;;;5047051;28;20498;-80
2022/07/22 02:08:10;;;;;;;13.33;9.30;;;16.20;1.00;;;;;;5056595;28;20424;-80
2022/07/22 02:10:36;;;;;;;15.77;9.93;;;16.20;1.00;;;;;;5058402;28;20197;-81
2022/07/22 02:13:20;;;;;;;17.10;9.80;;;16.20;2.90;;;;;;5043053;28;20384;-80
2022/07/22 02:15:50;;;;;;;20.30;9.53;;;16.20;3.10;;;;;;5056334;28;20880;-80
2022/07/22 02:18:18;;;;;;;15.07;9.43;;;16.20;1.00;;;;;;5046701;28;20386;-80
2022/07/22 02:20:45;;;;;;;14.70;9.30;;;16.20;1.70;;;;;;5039877;28;20381;-80
2022/07/22 02:23:14;;;;;;;12.63;9.20;;;16.20;1.00;;;;;;5046425;28;20378;-80
2022/07/22 02:25:50;;;;;;;13.70;9.80;;;16.20;1.00;;;;;;5040204;28;20425;-80
2022/07/22 02:28:16;;;;;;;14.27;9.50;;;16.20;3.40;;;;;;5047309;28;20450;-80
2022/07/22 02:30:44;;;;;;;15.63;9.87;;;16.10;3.80;;;;;;5047612;28;20398;-80
2022/07/22 02:33:38;;;;;;;17.60;10.80;;;16.00;5.50;;;;;;5044686;28;20423;-81
2022/07/22 02:36:20;;;;;;;11.70;9.67;;;16.00;9.60;;;;;;5036630;28;20447;-81
2022/07/22 02:38:50;;;;;;;16.40;10.20;;;16.00;8.10;;;;;;5047522;28;20434;-80
2022/07/22 02:41:20;;;;;;;13.47;9.77;;;16.00;7.80;;;;;;5036426;28;20414;-81
2022/07/22 02:43:53;;;;;;;18.50;9.73;;;16.00;4.70;;;;;;5052116;28;20429;-81
2022/07/22 02:46:22;;;;;;;19.73;10.70;;;16.00;5.10;;;;;;5049232;28;20397;-80
2022/07/22 02:48:48;;;;;;;18.40;9.40;;;16.00;5.20;;;;;;5056317;28;20401;-77
2022/07/22 02:51:13;;;;;;;12.33;9.00;;;15.90;5.70;;;;;;5049789;28;20377;-77
2022/07/22 02:54:08;;;;;;;13.53;9.07;;;15.90;5.10;;;;;;5055836;28;20187;-77
2022/07/22 02:56:38;;;;;;;16.10;9.30;;;15.90;3.40;;;;;;5050879;28;20303;-77
2022/07/22 02:59:08;;;;;;;13.63;9.43;;;15.90;2.10;;;;;;5035997;28;20519;-77
2022/07/22 03:01:38;;;;;;;17.33;9.20;;;15.80;2.30;;;;;;5054247;28;20432;-77
2022/07/22 03:04:20;;;;;;;15.90;9.50;;;15.70;3.20;;;;;;5043457;28;20597;-80
2022/07/22 03:06:56;;;;;;;13.60;9.40;;;15.70;9.10;;;;;;5043473;28;20381;-81
2022/07/22 03:09:32;;;;;;;13.20;9.90;;;15.70;7.50;;;;;;5041925;28;20429;-80
2022/07/22 03:12:14;;;;;;;16.80;9.50;;;15.70;5.80;;;;;;5055313;28;20786;-80
2022/07/22 03:14:56;;;;;;;15.43;10.13;;;15.70;3.10;;;;;;5042140;28;20413;-80
2022/07/22 03:17:26;;;;;;;13.90;8.57;;;15.60;6.60;;;;;;5039805;28;20921;-78
2022/07/22 03:20:20;;;;;;;12.40;9.27;;;15.60;5.70;;;;;;5051587;28;20827;-77
2022/07/22 03:22:50;;;;;;;14.47;9.47;;;15.60;4.50;;;;;;5042362;28;20418;-77
2022/07/22 03:25:26;;;;;;;15.33;10.67;;;15.50;5.00;;;;;;5054533;28;20463;-77
2022/07/22 03:27:52;;;;;;;12.33;9.43;;;15.50;8.50;;;;;;5044750;28;20719;-77
2022/07/22 03:30:20;;;;;;;15.10;9.73;;;15.50;7.50;;;;;;5046615;28;20424;-77
2022/07/22 03:32:46;;;;;;;16.40;9.63;;;15.50;5.20;;;;;;5044719;28;20422;-81
2022/07/22 03:35:15;;;;;;;20.47;8.53;;;15.50;4.50;;;;;;5052934;28;20432;-80
2022/07/22 03:37:50;;;;;;;16.50;8.53;;;15.50;4.30;;;;;;5043953;28;20393;-81
2022/07/22 03:44:08;;;;;;;16.20;10.00;;;15.50;8.30;;;;;;5050186;28;20470;-77
2022/07/22 03:46:34;;;;;;;11.73;9.20;;;15.50;7.40;;;;;;5041440;28;20449;-77
2022/07/22 03:49:08;;;;;;;12.87;9.10;;;15.50;7.40;;;;;;5055318;28;20387;-77
2022/07/22 03:51:38;;;;;;;22.90;11.43;;;15.50;12.20;;;;;;5052432;28;20476;-77
2022/07/22 03:54:14;;;;;;;19.23;10.10;;;15.50;13.60;;;;;;5044337;28;20769;-76
2022/07/22 03:56:44;;;;;;;14.03;10.00;;;15.60;19.10;;;;;;5048061;28;20840;-77
2022/07/22 03:59:50;;;;;;;21.43;11.00;;;15.70;19.00;;;;;;5047365;28;20381;-76
2022/07/22 04:02:20;;;;;;;14.30;10.27;;;15.80;18.90;;;;;;5045870;28;20467;-77
2022/07/22 04:04:50;;;;;;;11.90;9.00;;;15.90;16.90;;;;;;5054963;28;20460;-75
2022/07/22 04:07:16;;;;;;;16.63;10.37;;;16.00;20.20;;;;;;5046110;28;20431;-74
2022/07/22 04:09:44;;;;;;;15.10;9.73;;;16.10;22.30;;;;;;5040847;28;20454;-75
2022/07/22 04:12:14;;;;;;;17.23;10.23;;;16.20;24.10;;;;;;5054299;28;20611;-75
2022/07/22 04:14:40;;;;;;;26.17;10.70;;;16.30;24.30;;;;;;5041799;28;20392;-74
2022/07/22 04:17:08;;;;;;;14.57;9.90;;;16.40;21.70;;;;;;5041254;28;20387;-75
2022/07/22 04:19:34;;;;;;;14.30;9.50;;;16.50;22.50;;;;;;5047186;28;20185;-77
2022/07/22 04:22:08;;;;;;;18.73;10.80;;;16.60;22.50;;;;;;5047320;28;20440;-77
2022/07/22 04:24:50;;;;;;;21.47;9.70;;;16.70;16.10;;;;;;5054023;28;20550;-77
2022/07/22 04:27:16;;;;;;;16.93;9.37;;;16.90;12.00;;;;;;5040374;28;20389;-77
2022/07/22 04:29:44;;;;;;;12.13;8.80;;;17.00;4.70;;;;;;5047476;28;20422;-77
2022/07/22 04:32:10;;;;;;;10.77;8.90;;;17.10;3.40;;;;;;5049552;28;20662;-76
2022/07/22 04:34:35;;;;;;;17.47;8.60;;;17.20;1.00;;;;;;5043311;28;20454;-76
2022/07/22 04:37:08;;;;;;;16.80;10.03;;;17.30;1.00;;;;;;5041735;28;20726;-76
2022/07/22 04:39:38;;;;;;;11.03;8.67;;;17.40;1.00;;;;;;5045888;28;20222;-76
2022/07/22 04:42:04;;;;;;;14.87;9.27;;;17.50;1.00;;;;;;5048016;28;20400;-78
2022/07/22 04:44:50;;;;;;;13.67;9.47;;;17.50;1.00;;;;;;5038462;28;20447;-77
2022/07/22 04:47:20;;;;;;;12.50;8.87;;;17.60;1.00;;;;;;5033918;28;20411;-76
2022/07/22 04:49:56;;;;;;;13.17;9.07;;;17.80;1.00;;;;;;5034191;28;20423;-77
2022/07/22 04:52:22;;;;;;;11.10;8.90;;;17.80;1.00;;;;;;5043047;28;21001;-77
2022/07/22 04:54:50;;;;;;;15.63;8.53;;;17.90;1.00;;;;;;5049928;28;20500;-76
2022/07/22 04:57:16;;;;;;;12.20;8.70;;;18.00;1.00;;;;;;5044640;28;20621;-77
2022/07/22 04:59:50;;;;;;;13.13;8.03;;;18.10;1.00;;;;;;5049563;28;20512;-77
2022/07/22 05:02:20;;;;;;;9.87;7.73;;;18.20;1.00;;;;;;5045796;28;20217;-77
2022/07/22 05:05:08;;;;;;;9.73;7.37;;;18.30;1.00;;;;;;5039405;28;20959;-74
2022/07/22 05:07:34;;;;;;;10.43;7.53;;;18.40;1.00;;;;;;5038685;28;20414;-74
2022/07/22 05:10:03;;;;;;;8.50;7.70;;;18.50;1.00;;;;;;5041898;28;20424;-74
2022/07/22 05:12:32;;;;;;;11.10;7.40;;;18.50;1.00;;;;;;5053154;28;20501;-74
2022/07/22 05:15:20;;;;;;;8.00;7.20;;;18.50;1.00;;;;;;5045781;28;20405;-74
2022/07/22 05:17:46;;;;;;;9.67;7.77;;;18.70;1.00;;;;;;5038167;28;20404;-75
2022/07/22 05:20:32;;;;;;;12.47;7.90;;;18.90;1.00;;;;;;5044508;28;20413;-75
2022/07/22 05:22:58;;;;;;;12.97;7.10;;;19.00;1.00;;;;;;5053393;28;20186;-75
2022/07/22 05:25:27;;;;;;;10.00;7.13;;;19.10;1.00;;;;;;5048748;28;20464;-75
2022/07/22 05:27:56;;;;;;;11.80;7.37;;;19.20;1.00;;;;;;5044869;28;20441;-75
2022/07/22 05:30:26;;;;;;;10.33;7.50;;;19.40;1.00;;;;;;5039952;28;20754;-75
2022/07/22 05:33:08;;;;;;;10.53;7.20;;;19.50;1.00;;;;;;5041321;28;20417;-75
2022/07/22 05:35:34;;;;;;;12.43;7.13;;;19.60;1.00;;;;;;5038169;28;20547;-75
2022/07/22 05:37:59;;;;;;;10.30;7.00;;;19.80;1.00;;;;;;5053302;28;20514;-76
2022/07/22 05:40:26;;;;;;;14.23;7.10;;;19.90;1.00;;;;;;5038195;28;20198;-76
2022/07/22 05:42:52;;;;;;;10.93;8.00;;;20.10;1.00;;;;;;5049577;28;20195;-75
2022/07/22 05:45:32;;;;;;;9.10;7.43;;;20.30;1.00;;;;;;5052024;28;20461;-75
2022/07/22 05:47:58;;;;;;;12.47;8.03;;;20.50;1.00;;;;;;5054902;28;20472;-75
2022/07/22 05:51:02;;;;;;;15.90;7.97;;;20.70;1.00;;;;;;5055992;28;20590;-78
2022/07/22 05:53:50;;;;;;;12.37;8.43;;;20.70;1.00;;;;;;5049053;28;20506;-77
2022/07/22 05:56:16;;;;;;;16.50;8.70;;;20.70;1.00;;;;;;5038802;28;20432;-77
2022/07/22 05:58:44;;;;;;;9.70;8.00;;;20.70;1.00;;;;;;5044473;28;20414;-77
2022/07/22 06:01:26;;;;;;;11.17;7.47;;;20.70;1.00;;;;;;5052584;28;20902;-77
2022/07/22 06:03:56;;;;;;;11.80;8.67;;;20.60;1.00;;;;;;5037751;28;20513;-77
2022/07/22 06:06:33;;;;;;;12.13;8.83;;;20.60;1.00;;;;;;5049660;28;20764;-78
2022/07/22 06:09:09;;;;;;;12.70;8.20;;;20.70;1.00;;;;;;5054934;28;20490;-78
2022/07/22 06:11:45;;;;;;;13.50;8.40;;;20.70;1.00;;;;;;5048203;28;20439;-77
2022/07/22 06:14:17;;;;;;;14.43;8.37;;;20.80;1.00;;;;;;5051184;28;20827;-77
2022/07/22 06:16:58;;;;;;;16.53;9.07;;;21.00;1.00;;;;;;5046112;28;20423;-77
2022/07/22 06:19:44;;;;;;;11.70;8.20;;;21.20;1.00;;;;;;5042631;28;20441;-85
2022/07/22 06:22:10;;;;;;;11.50;8.10;;;21.30;1.00;;;;;;5042075;28;20427;-84
2022/07/22 06:24:50;;;;;;;11.87;7.80;;;21.40;1.00;;;;;;5048963;28;20462;-84
2022/07/22 06:27:32;;;;;;;11.43;7.90;;;21.50;1.00;;;;;;5065675;28;20413;-81
2022/07/22 06:30:09;;;;;;;12.10;7.77;;;21.60;1.00;;;;;;5047138;28;20424;-78
2022/07/22 06:32:40;;;;;;;14.30;8.70;;;21.80;1.00;;;;;;5043403;28;20419;-77
2022/07/22 06:35:06;;;;;;;17.00;8.97;;;22.00;1.00;;;;;;5040782;28;20456;-80
2022/07/22 06:37:32;;;;;;;9.30;7.60;;;22.20;1.00;;;;;;5038060;28;20502;-80
2022/07/22 06:40:03;;;;;;;12.33;8.13;;;22.40;1.00;;;;;;5041905;28;20442;-79
2022/07/22 06:42:51;;;;;;;10.90;7.60;;;22.70;1.00;;;;;;5036080;28;20205;-79
2022/07/22 06:45:20;;;;;;;7.67;6.57;;;23.00;1.00;;;;;;5044394;28;20457;-79
2022/07/22 06:47:50;;;;;;;7.73;6.87;;;23.20;1.00;;;;;;5052361;28;20773;-79
2022/07/22 06:50:17;;;;;;;8.83;6.60;;;23.40;1.00;;;;;;5045673;28;20843;-79
2022/07/22 06:52:43;;;;;;;8.70;6.90;;;23.70;1.00;;;;;;5049185;28;20452;-79
2022/07/22 06:55:38;;;;;;;9.77;6.90;;;23.90;1.00;;;;;;5035994;28;20508;-79
2022/07/22 06:58:08;;;;;;;12.17;7.67;;;24.10;1.00;;;;;;5043653;28;20415;-79
2022/07/22 07:00:38;;;;;;;8.63;6.27;;;24.20;1.00;;;;;;5041311;28;20785;-79
2022/07/22 07:03:14;;;;;;;7.87;6.73;;;24.30;1.00;;;;;;5045222;28;20420;-79
2022/07/22 07:05:50;;;;;;;13.47;7.10;;;24.40;1.00;;;;;;5039919;28;20977;-76
2022/07/22 07:08:20;;;;;;;11.87;6.20;;;24.20;1.00;;;;;;5054792;28;20447;-76
2022/07/22 07:10:46;;;;;;;13.63;7.10;;;24.20;1.00;;;;;;5042053;28;20424;-77
2022/07/22 07:13:14;;;;;;;15.67;7.20;;;24.10;1.00;;;;;;5042951;28;20424;-76
2022/07/22 07:15:40;;;;;;;8.70;6.47;;;24.00;1.00;;;;;;5047887;28;20432;-76
2022/07/22 07:18:08;;;;;;;8.10;6.20;;;24.00;1.00;;;;;;5048280;28;20887;-76
2022/07/22 07:20:34;;;;;;;10.63;7.10;;;24.00;1.00;;;;;;5038142;28;20179;-79
2022/07/22 07:23:08;;;;;;;13.50;6.93;;;24.10;1.00;;;;;;5048761;28;20488;-79
2022/07/22 07:25:51;;;;;;;9.77;6.73;;;24.10;1.00;;;;;;5047385;28;20471;-79
2022/07/22 07:28:20;;;;;;;9.30;6.10;;;24.20;1.00;;;;;;5048711;28;20476;-79
2022/07/22 07:31:14;;;;;;;6.53;5.80;;;24.20;1.00;;;;;;5045715;28;20415;-79
2022/07/22 07:33:40;;;;;;;7.03;5.73;;;24.10;1.00;;;;;;5042912;28;20416;-79
2022/07/22 07:36:26;;;;;;;14.27;6.10;;;24.20;1.00;;;;;;5041871;28;20447;-76
2022/07/22 07:39:02;;;;;;;11.50;6.63;;;24.10;1.00;;;;;;5044896;28;20191;-76
2022/07/22 07:41:32;;;;;;;8.10;7.10;;;24.00;1.00;;;;;;5053737;28;20447;-77
2022/07/22 07:44:02;;;;;;;10.80;7.37;;;24.10;1.00;;;;;;5054050;28;20464;-77
2022/07/22 07:46:28;;;;;;;11.97;6.87;;;24.10;1.00;;;;;;5049242;28;20425;-76
2022/07/22 07:48:56;;;;;;;9.70;6.50;;;24.10;1.00;;;;;;5038205;28;20415;-76
2022/07/22 07:51:26;;;;;;;12.50;6.47;;;24.10;1.00;;;;;;5047818;28;20195;-77
2022/07/22 07:53:52;;;;;;;9.53;6.97;;;24.20;1.00;;;;;;5047106;28;20417;-77
2022/07/22 07:56:20;;;;;;;7.83;6.60;;;24.20;1.00;;;;;;5042640;28;20448;-76
2022/07/22 07:58:50;;;;;;;10.73;7.47;;;24.30;1.00;;;;;;5041307;28;20233;-76
2022/07/22 08:01:20;;;;;;;8.90;6.70;;;24.30;1.00;;;;;;5041554;28;20421;-76
2022/07/22 08:03:50;;;;;;;11.23;6.77;;;24.20;1.00;;;;;;5041417;28;20462;-76
2022/07/22 08:06:20;;;;;;;7.27;6.40;;;24.20;1.00;;;;;;5046683;28;20440;-79
2022/07/22 08:08:50;;;;;;;27.77;7.63;;;24.10;1.00;;;;;;5036515;28;20449;-79
2022/07/22 08:11:20;;;;;;;7.63;6.80;;;24.00;1.00;;;;;;5044824;28;20909;-79
2022/07/22 08:14:02;;;;;;;10.60;6.80;;;23.90;1.00;;;;;;5047816;28;20455;-79
2022/07/22 08:16:44;;;;;;;10.20;6.67;;;23.90;1.00;;;;;;5046413;28;20425;-79
2022/07/22 08:19:14;;;;;;;8.97;6.20;;;24.00;1.00;;;;;;5046497;28;20788;-79
2022/07/22 08:21:56;;;;;;;7.27;6.37;;;24.00;1.00;;;;;;5048175;28;20467;-77
2022/07/22 08:24:26;;;;;;;10.03;7.00;;;24.10;1.00;;;;;;5045242;28;20513;-76
2022/07/22 08:26:56;;;;;;;7.40;6.57;;;24.20;1.00;;;;;;5040713;28;20412;-76
2022/07/22 08:29:22;;;;;;;8.90;6.50;;;24.20;1.00;;;;;;5054341;28;20448;-76
2022/07/22 08:31:50;;;;;;;8.33;6.47;;;24.30;1.00;;;;;;5040954;28;20409;-76
2022/07/22 08:34:16;;;;;;;12.70;6.80;;;24.30;1.00;;;;;;5042441;28;20531;-76
2022/07/22 08:36:42;;;;;;;11.90;6.50;;;24.30;1.00;;;;;;5047536;28;20500;-78
2022/07/22 08:39:20;;;;;;;6.60;5.80;;;24.40;1.00;;;;;;5033972;28;20163;-79
2022/07/22 08:41:46;;;;;;;9.70;6.80;;;24.50;1.00;;;;;;5047306;28;20232;-78
2022/07/22 08:44:21;;;;;;;19.67;7.37;;;24.60;1.00;;;;;;5046230;28;20461;-78
2022/07/22 08:46:47;;;;;;;9.80;6.37;;;24.60;1.00;;;;;;5038587;28;20182;-78
2022/07/22 08:49:20;;;;;;;11.20;6.23;;;24.80;1.00;;;;;;5047123;28;20423;-78
2022/07/22 08:51:50;;;;;;;9.70;7.30;;;24.80;1.00;;;;;;5042252;28;20211;-76
2022/07/22 08:54:16;;;;;;;10.87;7.57;;;24.90;1.00;;;;;;5050743;28;20510;-76
2022/07/22 08:56:49;;;;;;;10.90;6.80;;;24.90;1.00;;;;;;5053121;28;20505;-76
2022/07/22 08:59:20;;;;;;;8.57;6.53;;;25.00;1.00;;;;;;5051990;28;20239;-76
2022/07/22 09:02:14;;;;;;;7.70;7.00;;;24.90;1.00;;;;;;5044684;28;20958;-76
2022/07/22 09:05:15;;;;;;;12.50;6.80;;;24.80;1.00;;;;;;5050710;28;20820;-82
2022/07/22 09:07:50;;;;;;;7.33;6.20;;;24.90;1.00;;;;;;5053527;28;20404;-80
2022/07/22 09:10:20;;;;;;;7.17;5.90;;;24.80;1.00;;;;;;5046523;28;20432;-79
2022/07/22 09:12:55;;;;;;;11.30;6.23;;;24.80;1.00;;;;;;5033007;28;20968;-78
2022/07/22 09:15:31;;;;;;;8.50;6.00;;;24.90;1.00;;;;;;5033286;28;20414;-78
2022/07/22 09:18:14;;;;;;;7.90;5.10;;;24.90;1.00;;;;;;5048647;28;20491;-78
2022/07/22 09:20:45;;;;;;;8.27;6.00;;;25.10;1.00;;;;;;5052973;28;20905;-77
2022/07/22 09:23:22;;;;;;;5.50;5.00;;;25.30;1.00;;;;;;5040666;28;20474;-77
2022/07/22 09:25:51;;;;;;;9.27;6.07;;;25.40;1.00;;;;;;5041568;28;20419;-77
2022/07/22 09:28:21;;;;;;;7.70;5.37;;;25.50;1.00;;;;;;5053121;28;20424;-77
2022/07/22 09:30:53;;;;;;;6.23;5.20;;;25.50;1.00;;;;;;5047168;28;20498;-76
2022/07/22 09:33:21;;;;;;;6.27;5.20;;;25.60;1.00;;;;;;5045506;28;20420;-76
2022/07/22 09:35:49;;;;;;;6.47;5.00;;;25.60;1.00;;;;;;5040286;28;20441;-77
2022/07/22 09:38:28;;;;;;;9.13;5.90;;;25.70;1.00;;;;;;5051860;28;20763;-78
2022/07/22 09:40:58;;;;;;;9.60;6.10;;;25.80;1.00;;;;;;5049875;28;20466;-78
2022/07/22 09:43:32;;;;;;;7.63;4.83;;;25.90;1.00;;;;;;5043977;28;20481;-78
2022/07/22 09:46:04;;;;;;;6.80;5.17;;;26.00;1.00;;;;;;5051516;28;20408;-78
2022/07/22 09:48:30;;;;;;;9.27;4.73;;;26.20;1.00;;;;;;5053123;28;20436;-78
2022/07/22 09:50:56;;;;;;;9.03;5.70;;;26.40;1.00;;;;;;5048100;28;20431;-77
2022/07/22 09:53:28;;;;;;;5.23;4.73;;;26.60;1.00;;;;;;5053387;28;20410;-77
2022/07/22 09:55:58;;;;;;;11.43;5.57;;;26.60;1.00;;;;;;5053150;28;20409;-76
2022/07/22 09:58:32;;;;;;;6.20;5.20;;;26.70;1.00;;;;;;5052616;28;20439;-77
2022/07/22 10:01:05;;;;;;;7.30;6.10;;;26.80;1.00;;;;;;5044165;28;20421;-77
2022/07/22 10:03:33;;;;;;;6.60;5.20;;;26.70;1.00;;;;;;5033133;28;20987;-77
2022/07/22 10:06:10;;;;;;;5.27;4.77;;;26.80;1.00;;;;;;5033542;28;20400;-77
2022/07/22 10:08:37;;;;;;;6.33;4.90;;;26.90;1.00;;;;;;5033021;28;20533;-78
2022/07/22 10:11:05;;;;;;;7.33;4.90;;;26.90;1.00;;;;;;5040438;28;20801;-77
2022/07/22 10:13:40;;;;;;;6.63;5.70;;;26.90;1.00;;;;;;5053025;28;20420;-78
2022/07/22 10:16:09;;;;;;;5.47;4.90;;;26.80;1.00;;;;;;5032945;28;20892;-78
2022/07/22 10:18:39;;;;;;;6.17;4.67;;;26.80;1.00;;;;;;5046562;28;20436;-77
2022/07/22 10:21:10;;;;;;;5.50;5.00;;;26.90;1.00;;;;;;5051810;28;20417;-77
2022/07/22 10:23:56;;;;;;;6.60;5.13;;;27.00;1.00;;;;;;5043968;28;20416;-76
2022/07/22 10:26:49;;;;;;;6.23;5.20;;;26.90;1.00;;;;;;5044132;28;20422;-76
2022/07/22 10:29:51;;;;;;;4.87;4.47;;;26.90;1.00;;;;;;5056480;28;20411;-76
2022/07/22 10:32:17;;;;;;;5.60;4.43;;;26.90;1.00;;;;;;5049045;28;20430;-77
2022/07/22 10:34:43;;;;;;;5.73;4.43;;;27.10;1.00;;;;;;5045165;28;20439;-76
2022/07/22 10:37:34;;;;;;;4.23;3.93;;;28.60;1.00;;;;;;5056760;28;20560;-76
2022/07/22 10:40:29;;;;;;;8.10;4.57;;;27.40;1.00;;;;;;5051616;28;20508;-76
2022/07/22 10:43:03;;;;;;;6.53;4.60;;;27.60;1.00;;;;;;5052947;28;21108;-76
2022/07/22 10:45:45;;;;;;;8.90;4.70;;;27.80;1.00;;;;;;5056222;28;20945;-76
2022/07/22 10:48:44;;;;;;;4.70;4.30;;;28.00;1.00;;;;;;5041137;28;20415;-76
2022/07/22 10:51:14;;;;;;;5.80;4.30;;;28.00;1.00;;;;;;5046041;28;20400;-76
2022/07/22 10:53:57;;;;;;;6.00;4.67;;;28.10;1.00;;;;;;5056157;28;20418;-78
2022/07/22 10:56:41;;;;;;;4.70;4.17;;;28.20;1.00;;;;;;5055838;28;20927;-77
2022/07/22 10:59:56;;;;;;;6.47;4.40;;;28.20;1.00;;;;;;5044785;28;20413;-78
2022/07/22 11:02:27;;;;;;;4.67;4.20;;;28.40;1.00;;;;;;5044786;28;20414;-77
2022/07/22 11:04:54;;;;;;;7.60;4.80;;;28.50;1.00;;;;;;5042186;28;20454;-77
2022/07/22 11:07:20;;;;;;;5.10;4.57;;;28.60;1.00;;;;;;5045219;28;20804;-77
2022/07/22 11:09:46;;;;;;;6.00;4.50;;;28.70;1.00;;;;;;5038387;28;20413;-77
2022/07/22 11:12:20;;;;;;;6.30;3.87;;;28.80;1.00;;;;;;5055610;28;20185;-78
2022/07/22 11:15:14;;;;;;;4.80;4.27;;;28.90;1.00;;;;;;5048463;28;20188;-77
2022/07/22 11:17:44;;;;;;;7.43;4.50;;;28.90;1.00;;;;;;5054389;28;20940;-77
2022/07/22 11:20:14;;;;;;;10.33;4.77;;;28.90;1.00;;;;;;5046158;28;20425;-77
2022/07/22 11:22:40;;;;;;;5.50;4.20;;;29.00;1.00;;;;;;5053599;28;20926;-76
2022/07/22 11:25:10;;;;;;;5.73;4.50;;;28.90;1.00;;;;;;5050733;28;20447;-76
2022/07/22 11:27:35;;;;;;;6.07;4.03;;;29.00;1.00;;;;;;5055015;28;20217;-76
2022/07/22 11:30:04;;;;;;;5.43;4.40;;;28.80;1.00;;;;;;5055192;28;20418;-76
2022/07/22 11:32:42;;;;;;;4.40;4.00;;;28.80;1.00;;;;;;5055365;28;20564;-75
2022/07/22 11:35:11;;;;;;;4.57;4.17;;;28.90;1.00;;;;;;5052156;28;20441;-77
2022/07/22 11:37:38;;;;;;;4.43;4.03;;;29.00;1.00;;;;;;5035597;28;20401;-77
2022/07/22 11:40:09;;;;;;;7.83;3.90;;;29.10;1.00;;;;;;5047150;28;22162;-78
2022/07/22 11:42:34;;;;;;;7.13;4.30;;;29.30;1.00;;;;;;5048238;28;20423;-77
2022/07/22 11:45:03;;;;;;;4.67;4.27;;;29.40;1.00;;;;;;5053581;28;20456;-77
2022/07/22 11:48:08;;;;;;;5.23;4.20;;;29.60;1.00;;;;;;5045238;28;20168;-77
2022/07/22 11:51:00;;;;;;;6.17;4.70;;;29.90;1.00;;;;;;4983142;28;20405;-77
2022/07/22 11:53:33;;;;;;;4.63;4.23;;;30.00;1.00;;;;;;4993826;28;20412;-77
2022/07/22 11:56:04;;;;;;;4.30;4.00;;;30.20;1.00;;;;;;4993364;28;20772;-77
2022/07/22 11:58:44;;;;;;;5.20;4.30;;;30.30;1.00;;;;;;4977169;28;20427;-77
2022/07/22 12:01:23;;;;;;;5.43;4.30;;;30.40;1.00;;;;;;4993756;28;20548;-77
2022/07/22 12:03:59;;;;;;;9.20;4.90;;;30.50;1.00;;;;;;4993410;28;20452;-77
2022/07/22 12:06:28;;;;;;;5.13;4.37;;;30.60;1.00;;;;;;4992865;28;20428;-77
2022/07/22 12:09:08;;;;;;;5.80;4.87;;;30.70;1.00;;;;;;4993329;28;20876;-76
2022/07/22 12:11:41;;;;;;;6.17;4.53;;;30.90;1.00;;;;;;4981579;28;20417;-76
2022/07/22 12:14:10;;;;;;;7.60;4.30;;;30.80;1.00;;;;;;4976565;28;20835;-76
2022/07/22 12:16:37;;;;;;;6.73;4.40;;;30.90;1.00;;;;;;4987793;28;20432;-75
2022/07/22 12:19:11;;;;;;;5.17;4.77;;;30.90;1.00;;;;;;4989362;28;20445;-76
2022/07/22 12:21:57;;;;;;;5.30;4.30;;;31.00;1.00;;;;;;4978748;28;20954;-76
2022/07/22 12:24:37;;;;;;;5.10;4.60;;;30.80;1.00;;;;;;5015507;28;20461;-75
2022/07/22 12:27:10;;;;;;;5.57;4.00;;;30.80;1.00;;;;;;5054057;28;20472;-76
2022/07/22 12:29:36;;;;;;;5.43;4.83;;;31.00;1.00;;;;;;5043252;28;21041;-76
2022/07/22 12:32:03;;;;;;;9.10;4.20;;;31.10;1.00;;;;;;5050022;28;20513;-77
2022/07/22 12:34:29;;;;;;;5.07;4.57;;;31.20;1.00;;;;;;5053809;28;20495;-76
2022/07/22 12:36:55;;;;;;;7.70;5.13;;;31.30;1.00;;;;;;5053860;28;20444;-76
2022/07/22 12:39:20;;;;;;;8.80;5.03;;;31.40;1.00;;;;;;5051235;28;20267;-76
2022/07/22 12:41:51;;;;;;;10.40;4.97;;;31.50;1.00;;;;;;5041126;28;20199;-76
2022/07/22 12:44:26;;;;;;;6.17;4.07;;;31.60;1.00;;;;;;5033848;28;20196;-76
2022/07/22 12:46:55;;;;;;;4.70;4.20;;;31.60;1.00;;;;;;5048262;28;20937;-75
2022/07/22 12:49:24;;;;;;;5.33;4.50;;;31.60;1.00;;;;;;5041077;28;20465;-82
2022/07/22 12:52:14;;;;;;;4.87;4.47;;;31.60;1.00;;;;;;5052569;28;20423;-79
2022/07/22 12:54:44;;;;;;;4.57;4.17;;;31.70;1.00;;;;;;5037160;28;20925;-78
2022/07/22 12:57:14;;;;;;;9.10;4.87;;;31.80;1.00;;;;;;5033998;28;20399;-79
2022/07/22 12:59:53;;;;;;;4.60;4.23;;;32.10;1.00;;;;;;5033826;28;20748;-79
2022/07/22 13:02:38;;;;;;;6.07;4.50;;;32.20;1.00;;;;;;5033462;28;20866;-80
2022/07/22 13:05:15;;;;;;;4.80;4.40;;;32.40;1.00;;;;;;5041455;28;20461;-83
2022/07/22 13:08:02;;;;;;;6.03;4.93;;;32.60;1.00;;;;;;5036463;28;20454;-80
2022/07/22 13:10:45;;;;;;;4.40;4.10;;;32.70;1.00;;;;;;5033452;28;20406;-80
2022/07/22 13:13:14;;;;;;;9.93;5.00;;;32.90;1.00;;;;;;5045818;28;20417;-80
2022/07/22 13:15:45;;;;;;;5.60;4.50;;;32.90;1.00;;;;;;5048038;28;20774;-78
2022/07/22 13:18:15;;;;;;;6.17;4.50;;;33.00;1.00;;;;;;5045269;28;20450;-84
2022/07/22 13:20:42;;;;;;;5.43;4.27;;;33.20;1.00;;;;;;5037340;28;20442;-79
2022/07/22 13:23:07;;;;;;;5.40;4.40;;;33.30;1.00;;;;;;5045877;28;20418;-78
2022/07/22 13:25:38;;;;;;;9.10;4.67;;;33.30;1.00;;;;;;5048939;28;20515;-82
2022/07/22 13:28:04;;;;;;;6.37;4.77;;;33.40;1.00;;;;;;5049386;28;20172;-81
2022/07/22 13:30:31;;;;;;;5.67;4.97;;;33.30;1.00;;;;;;5036262;28;20403;-79